sensor_id;sensor_type;location;lat;lon;timestamp;P1;durP1;ratioP1;P2;durP2;ratioP2
1106;SDS011;540;49.448;8.612;2022-09-17T00:01:09;3.65;;;0.60;;
1106;SDS011;540;49.448;8.612;2022-09-17T00:03:41;1.10;;;0.60;;
1106;SDS011;540;49.448;8.612;2022-09-17T00:06:11;1.83;;;0.57;;
1106;SDS011;540;49.448;8.612;2022-09-17T00:08:39;1.33;;;0.68;;
1106;SDS011;540;49.448;8.612;2022-09-17T00:11:08;1.83;;;0.65;;
1106;SDS011;540;49.448;8.612;2022-09-17T00:13:40;1.15;;;0.55;;
1106;SDS011;540;49.448;8.612;2022-09-17T00:16:09;3.05;;;0.50;;
1106;SDS011;540;49.448;8.612;2022-09-17T00:18:37;3.67;;;0.70;;
1106;SDS011;540;49.448;8.612;2022-09-17T00:21:07;2.60;;;0.60;;
1106;SDS011;540;49.448;8.612;2022-09-17T00:23:42;1.25;;;0.60;;
1106;SDS011;540;49.448;8.612;2022-09-17T00:26:12;0.77;;;0.40;;
1106;SDS011;540;49.448;8.612;2022-09-17T00:28:40;1.45;;;0.70;;
1106;SDS011;540;49.448;8.612;2022-09-17T00:31:10;2.83;;;0.85;;
1106;SDS011;540;49.448;8.612;2022-09-17T00:33:38;6.20;;;0.98;;
1106;SDS011;540;49.448;8.612;2022-09-17T00:36:06;2.60;;;0.65;;
1106;SDS011;540;49.448;8.612;2022-09-17T00:38:34;2.15;;;0.60;;
1106;SDS011;540;49.448;8.612;2022-09-17T00:41:02;1.95;;;0.40;;
1106;SDS011;540;49.448;8.612;2022-09-17T00:43:39;1.75;;;0.75;;
1106;SDS011;540;49.448;8.612;2022-09-17T00:46:11;3.17;;;0.70;;
1106;SDS011;540;49.448;8.612;2022-09-17T00:48:49;4.22;;;0.80;;
1106;SDS011;540;49.448;8.612;2022-09-17T00:51:19;2.63;;;0.70;;
1106;SDS011;540;49.448;8.612;2022-09-17T00:53:50;1.30;;;0.50;;
1106;SDS011;540;49.448;8.612;2022-09-17T00:56:19;2.17;;;0.82;;
1106;SDS011;540;49.448;8.612;2022-09-17T00:58:52;3.00;;;0.70;;
1106;SDS011;540;49.448;8.612;2022-09-17T01:01:21;1.48;;;0.85;;
1106;SDS011;540;49.448;8.612;2022-09-17T01:03:49;2.35;;;0.90;;
1106;SDS011;540;49.448;8.612;2022-09-17T01:06:19;1.13;;;0.60;;
1106;SDS011;540;49.448;8.612;2022-09-17T01:09:00;2.40;;;0.40;;
1106;SDS011;540;49.448;8.612;2022-09-17T01:11:41;1.98;;;0.70;;
1106;SDS011;540;49.448;8.612;2022-09-17T01:14:24;4.90;;;0.95;;
1106;SDS011;540;49.448;8.612;2022-09-17T01:17:05;1.45;;;0.50;;
1106;SDS011;540;49.448;8.612;2022-09-17T01:22:52;1.63;;;0.57;;
1106;SDS011;540;49.448;8.612;2022-09-17T01:25:30;4.97;;;0.70;;
1106;SDS011;540;49.448;8.612;2022-09-17T01:28:19;1.95;;;0.70;;
1106;SDS011;540;49.448;8.612;2022-09-17T01:31:02;2.58;;;1.00;;
1106;SDS011;540;49.448;8.612;2022-09-17T01:33:50;1.40;;;0.65;;
1106;SDS011;540;49.448;8.612;2022-09-17T01:36:28;1.80;;;0.82;;
1106;SDS011;540;49.448;8.612;2022-09-17T01:39:06;5.03;;;1.27;;
1106;SDS011;540;49.448;8.612;2022-09-17T01:41:44;4.88;;;0.95;;
1106;SDS011;540;49.448;8.612;2022-09-17T01:44:19;2.97;;;0.98;;
1106;SDS011;540;49.448;8.612;2022-09-17T01:46:53;4.93;;;0.90;;
1106;SDS011;540;49.448;8.612;2022-09-17T01:49:29;3.78;;;1.00;;
1106;SDS011;540;49.448;8.612;2022-09-17T01:51:58;2.17;;;0.77;;
1106;SDS011;540;49.448;8.612;2022-09-17T01:54:29;3.78;;;0.75;;
1106;SDS011;540;49.448;8.612;2022-09-17T01:57:06;3.55;;;0.93;;
1106;SDS011;540;49.448;8.612;2022-09-17T01:59:40;4.53;;;1.05;;
1106;SDS011;540;49.448;8.612;2022-09-17T02:02:14;2.78;;;0.80;;
1106;SDS011;540;49.448;8.612;2022-09-17T02:04:48;3.53;;;0.68;;
1106;SDS011;540;49.448;8.612;2022-09-17T02:07:21;3.65;;;0.85;;
1106;SDS011;540;49.448;8.612;2022-09-17T02:09:52;3.75;;;1.20;;
1106;SDS011;540;49.448;8.612;2022-09-17T02:12:27;4.47;;;0.77;;
1106;SDS011;540;49.448;8.612;2022-09-17T02:14:58;3.67;;;0.80;;
1106;SDS011;540;49.448;8.612;2022-09-17T02:17:31;8.27;;;1.13;;
1106;SDS011;540;49.448;8.612;2022-09-17T02:20:03;3.45;;;0.70;;
1106;SDS011;540;49.448;8.612;2022-09-17T02:22:33;3.47;;;0.90;;
1106;SDS011;540;49.448;8.612;2022-09-17T02:25:07;3.13;;;0.80;;
1106;SDS011;540;49.448;8.612;2022-09-17T02:27:44;3.45;;;0.88;;
1106;SDS011;540;49.448;8.612;2022-09-17T02:30:17;5.30;;;0.90;;
1106;SDS011;540;49.448;8.612;2022-09-17T02:32:46;6.18;;;1.90;;
1106;SDS011;540;49.448;8.612;2022-09-17T02:35:14;4.72;;;0.82;;
1106;SDS011;540;49.448;8.612;2022-09-17T02:37:43;4.78;;;1.35;;
1106;SDS011;540;49.448;8.612;2022-09-17T02:40:12;2.67;;;0.90;;
1106;SDS011;540;49.448;8.612;2022-09-17T02:42:47;5.28;;;0.95;;
1106;SDS011;540;49.448;8.612;2022-09-17T02:45:29;5.07;;;0.93;;
1106;SDS011;540;49.448;8.612;2022-09-17T02:48:12;4.95;;;1.10;;
1106;SDS011;540;49.448;8.612;2022-09-17T02:50:57;3.42;;;0.85;;
1106;SDS011;540;49.448;8.612;2022-09-17T02:53:38;4.97;;;0.88;;
1106;SDS011;540;49.448;8.612;2022-09-17T02:56:13;4.30;;;1.10;;
1106;SDS011;540;49.448;8.612;2022-09-17T02:58:46;3.45;;;0.90;;
1106;SDS011;540;49.448;8.612;2022-09-17T03:01:20;5.32;;;1.10;;
1106;SDS011;540;49.448;8.612;2022-09-17T03:03:56;3.53;;;1.05;;
1106;SDS011;540;49.448;8.612;2022-09-17T03:06:28;3.70;;;0.95;;
1106;SDS011;540;49.448;8.612;2022-09-17T03:08:55;3.65;;;1.50;;
1106;SDS011;540;49.448;8.612;2022-09-17T03:11:23;4.45;;;1.20;;
1106;SDS011;540;49.448;8.612;2022-09-17T03:13:51;4.78;;;1.10;;
1106;SDS011;540;49.448;8.612;2022-09-17T03:16:19;4.32;;;1.10;;
1106;SDS011;540;49.448;8.612;2022-09-17T03:18:47;3.65;;;1.17;;
1106;SDS011;540;49.448;8.612;2022-09-17T03:21:16;2.25;;;1.30;;
1106;SDS011;540;49.448;8.612;2022-09-17T03:23:43;2.65;;;1.30;;
1106;SDS011;540;49.448;8.612;2022-09-17T03:26:12;5.45;;;1.38;;
1106;SDS011;540;49.448;8.612;2022-09-17T03:28:40;2.00;;;1.10;;
1106;SDS011;540;49.448;8.612;2022-09-17T03:31:08;8.85;;;1.30;;
1106;SDS011;540;49.448;8.612;2022-09-17T03:33:35;4.35;;;1.20;;
1106;SDS011;540;49.448;8.612;2022-09-17T03:36:03;5.50;;;1.25;;
1106;SDS011;540;49.448;8.612;2022-09-17T03:38:32;2.10;;;1.15;;
1106;SDS011;540;49.448;8.612;2022-09-17T03:41:01;2.08;;;1.38;;
1106;SDS011;540;49.448;8.612;2022-09-17T03:43:30;4.22;;;1.30;;
1106;SDS011;540;49.448;8.612;2022-09-17T03:45:57;6.07;;;1.40;;
1106;SDS011;540;49.448;8.612;2022-09-17T03:48:25;1.58;;;1.13;;
1106;SDS011;540;49.448;8.612;2022-09-17T03:50:54;4.75;;;1.20;;
1106;SDS011;540;49.448;8.612;2022-09-17T03:53:22;5.75;;;1.48;;
1106;SDS011;540;49.448;8.612;2022-09-17T03:55:51;1.60;;;0.85;;
1106;SDS011;540;49.448;8.612;2022-09-17T03:58:19;5.35;;;1.50;;
1106;SDS011;540;49.448;8.612;2022-09-17T04:00:46;2.75;;;0.93;;
1106;SDS011;540;49.448;8.612;2022-09-17T04:03:18;4.45;;;0.82;;
1106;SDS011;540;49.448;8.612;2022-09-17T04:05:47;1.70;;;0.90;;
1106;SDS011;540;49.448;8.612;2022-09-17T04:08:15;6.03;;;1.05;;
1106;SDS011;540;49.448;8.612;2022-09-17T04:10:43;5.80;;;1.13;;
1106;SDS011;540;49.448;8.612;2022-09-17T04:13:12;3.28;;;0.82;;
1106;SDS011;540;49.448;8.612;2022-09-17T04:15:41;3.00;;;1.00;;
1106;SDS011;540;49.448;8.612;2022-09-17T04:18:10;2.53;;;1.13;;
1106;SDS011;540;49.448;8.612;2022-09-17T04:20:39;4.50;;;1.30;;
1106;SDS011;540;49.448;8.612;2022-09-17T04:23:08;2.50;;;0.90;;
1106;SDS011;540;49.448;8.612;2022-09-17T04:25:37;3.55;;;1.10;;
1106;SDS011;540;49.448;8.612;2022-09-17T04:28:05;1.40;;;0.80;;
1106;SDS011;540;49.448;8.612;2022-09-17T04:30:34;6.95;;;1.10;;
1106;SDS011;540;49.448;8.612;2022-09-17T04:33:02;3.30;;;1.45;;
1106;SDS011;540;49.448;8.612;2022-09-17T04:35:30;5.22;;;1.10;;
1106;SDS011;540;49.448;8.612;2022-09-17T04:37:58;1.58;;;0.93;;
1106;SDS011;540;49.448;8.612;2022-09-17T04:40:26;2.33;;;0.90;;
1106;SDS011;540;49.448;8.612;2022-09-17T04:42:54;3.13;;;0.93;;
1106;SDS011;540;49.448;8.612;2022-09-17T04:45:24;4.55;;;1.58;;
1106;SDS011;540;49.448;8.612;2022-09-17T04:47:53;4.13;;;0.85;;
1106;SDS011;540;49.448;8.612;2022-09-17T04:50:22;6.40;;;1.63;;
1106;SDS011;540;49.448;8.612;2022-09-17T04:52:50;5.35;;;1.08;;
1106;SDS011;540;49.448;8.612;2022-09-17T04:55:18;3.08;;;1.10;;
1106;SDS011;540;49.448;8.612;2022-09-17T04:57:46;1.23;;;0.80;;
1106;SDS011;540;49.448;8.612;2022-09-17T05:00:15;3.65;;;0.90;;
1106;SDS011;540;49.448;8.612;2022-09-17T05:02:44;3.95;;;1.50;;
1106;SDS011;540;49.448;8.612;2022-09-17T05:05:15;3.97;;;1.40;;
1106;SDS011;540;49.448;8.612;2022-09-17T05:07:43;4.38;;;1.10;;
1106;SDS011;540;49.448;8.612;2022-09-17T05:10:12;2.30;;;1.10;;
1106;SDS011;540;49.448;8.612;2022-09-17T05:12:45;4.97;;;1.20;;
1106;SDS011;540;49.448;8.612;2022-09-17T05:15:14;2.05;;;1.00;;
1106;SDS011;540;49.448;8.612;2022-09-17T05:17:42;2.35;;;1.17;;
1106;SDS011;540;49.448;8.612;2022-09-17T05:20:10;5.60;;;2.38;;
1106;SDS011;540;49.448;8.612;2022-09-17T05:22:43;5.57;;;2.25;;
1106;SDS011;540;49.448;8.612;2022-09-17T05:25:12;10.88;;;2.45;;
1106;SDS011;540;49.448;8.612;2022-09-17T05:27:41;3.70;;;2.10;;
1106;SDS011;540;49.448;8.612;2022-09-17T05:30:09;3.90;;;2.25;;
1106;SDS011;540;49.448;8.612;2022-09-17T05:32:38;3.38;;;1.98;;
1106;SDS011;540;49.448;8.612;2022-09-17T05:35:07;5.72;;;1.60;;
1106;SDS011;540;49.448;8.612;2022-09-17T05:37:35;3.40;;;1.50;;
1106;SDS011;540;49.448;8.612;2022-09-17T05:40:06;4.40;;;1.38;;
1106;SDS011;540;49.448;8.612;2022-09-17T05:42:35;4.10;;;1.30;;
1106;SDS011;540;49.448;8.612;2022-09-17T05:45:04;4.43;;;1.50;;
1106;SDS011;540;49.448;8.612;2022-09-17T05:47:32;4.80;;;1.65;;
1106;SDS011;540;49.448;8.612;2022-09-17T05:50:01;4.20;;;1.25;;
1106;SDS011;540;49.448;8.612;2022-09-17T05:52:29;5.85;;;1.65;;
1106;SDS011;540;49.448;8.612;2022-09-17T05:54:56;5.15;;;1.60;;
1106;SDS011;540;49.448;8.612;2022-09-17T05:57:25;6.32;;;1.90;;
1106;SDS011;540;49.448;8.612;2022-09-17T05:59:55;10.95;;;2.97;;
1106;SDS011;540;49.448;8.612;2022-09-17T06:02:23;5.18;;;2.60;;
1106;SDS011;540;49.448;8.612;2022-09-17T06:04:51;5.82;;;1.55;;
1106;SDS011;540;49.448;8.612;2022-09-17T06:07:19;5.57;;;1.85;;
1106;SDS011;540;49.448;8.612;2022-09-17T06:09:46;2.45;;;1.27;;
1106;SDS011;540;49.448;8.612;2022-09-17T06:12:14;7.60;;;1.33;;
1106;SDS011;540;49.448;8.612;2022-09-17T06:14:43;3.40;;;1.80;;
1106;SDS011;540;49.448;8.612;2022-09-17T06:17:11;3.40;;;1.60;;
1106;SDS011;540;49.448;8.612;2022-09-17T06:19:39;3.08;;;1.80;;
1106;SDS011;540;49.448;8.612;2022-09-17T06:22:06;4.90;;;2.00;;
1106;SDS011;540;49.448;8.612;2022-09-17T06:24:34;4.30;;;1.90;;
1106;SDS011;540;49.448;8.612;2022-09-17T06:27:02;6.10;;;1.73;;
1106;SDS011;540;49.448;8.612;2022-09-17T06:29:30;4.20;;;1.88;;
1106;SDS011;540;49.448;8.612;2022-09-17T06:31:59;6.70;;;2.08;;
1106;SDS011;540;49.448;8.612;2022-09-17T06:34:27;3.85;;;1.98;;
1106;SDS011;540;49.448;8.612;2022-09-17T06:36:55;9.68;;;1.90;;
1106;SDS011;540;49.448;8.612;2022-09-17T06:39:23;3.90;;;1.70;;
1106;SDS011;540;49.448;8.612;2022-09-17T06:41:51;4.88;;;1.95;;
1106;SDS011;540;49.448;8.612;2022-09-17T06:44:18;4.38;;;1.63;;
1106;SDS011;540;49.448;8.612;2022-09-17T06:46:47;8.18;;;4.50;;
1106;SDS011;540;49.448;8.612;2022-09-17T06:49:17;3.72;;;1.63;;
1106;SDS011;540;49.448;8.612;2022-09-17T06:51:45;3.78;;;1.50;;
1106;SDS011;540;49.448;8.612;2022-09-17T06:54:13;5.35;;;1.95;;
1106;SDS011;540;49.448;8.612;2022-09-17T06:56:41;9.95;;;2.67;;
1106;SDS011;540;49.448;8.612;2022-09-17T06:59:08;4.95;;;1.40;;
1106;SDS011;540;49.448;8.612;2022-09-17T07:01:36;4.78;;;1.55;;
1106;SDS011;540;49.448;8.612;2022-09-17T07:04:04;6.18;;;2.15;;
1106;SDS011;540;49.448;8.612;2022-09-17T07:06:33;3.92;;;2.20;;
1106;SDS011;540;49.448;8.612;2022-09-17T07:09:01;3.53;;;1.42;;
1106;SDS011;540;49.448;8.612;2022-09-17T07:11:34;3.88;;;1.42;;
1106;SDS011;540;49.448;8.612;2022-09-17T07:14:02;6.60;;;1.80;;
1106;SDS011;540;49.448;8.612;2022-09-17T07:16:30;4.20;;;1.65;;
1106;SDS011;540;49.448;8.612;2022-09-17T07:19:01;4.25;;;1.50;;
1106;SDS011;540;49.448;8.612;2022-09-17T07:21:29;5.93;;;2.38;;
1106;SDS011;540;49.448;8.612;2022-09-17T07:24:01;4.03;;;1.63;;
1106;SDS011;540;49.448;8.612;2022-09-17T07:26:29;7.68;;;1.55;;
1106;SDS011;540;49.448;8.612;2022-09-17T07:28:58;7.35;;;1.67;;
1106;SDS011;540;49.448;8.612;2022-09-17T07:31:26;5.75;;;1.98;;
1106;SDS011;540;49.448;8.612;2022-09-17T07:34:01;5.43;;;2.60;;
1106;SDS011;540;49.448;8.612;2022-09-17T07:36:28;6.88;;;1.58;;
1106;SDS011;540;49.448;8.612;2022-09-17T07:38:56;9.25;;;1.65;;
1106;SDS011;540;49.448;8.612;2022-09-17T07:41:25;8.80;;;1.83;;
1106;SDS011;540;49.448;8.612;2022-09-17T07:43:53;4.82;;;1.10;;
1106;SDS011;540;49.448;8.612;2022-09-17T07:46:21;5.68;;;1.15;;
1106;SDS011;540;49.448;8.612;2022-09-17T07:48:49;5.60;;;2.03;;
1106;SDS011;540;49.448;8.612;2022-09-17T07:51:17;5.80;;;1.75;;
1106;SDS011;540;49.448;8.612;2022-09-17T07:53:46;8.00;;;2.17;;
1106;SDS011;540;49.448;8.612;2022-09-17T07:56:17;6.10;;;1.60;;
1106;SDS011;540;49.448;8.612;2022-09-17T07:58:46;8.70;;;1.67;;
1106;SDS011;540;49.448;8.612;2022-09-17T08:01:15;7.80;;;1.90;;
1106;SDS011;540;49.448;8.612;2022-09-17T08:03:46;10.52;;;2.05;;
1106;SDS011;540;49.448;8.612;2022-09-17T08:06:16;7.18;;;1.88;;
1106;SDS011;540;49.448;8.612;2022-09-17T08:08:45;4.57;;;1.45;;
1106;SDS011;540;49.448;8.612;2022-09-17T08:11:14;3.63;;;0.95;;
1106;SDS011;540;49.448;8.612;2022-09-17T08:14:05;4.25;;;1.00;;
1106;SDS011;540;49.448;8.612;2022-09-17T08:16:33;5.72;;;1.60;;
1106;SDS011;540;49.448;8.612;2022-09-17T08:19:01;6.68;;;1.30;;
1106;SDS011;540;49.448;8.612;2022-09-17T08:21:29;6.20;;;1.42;;
1106;SDS011;540;49.448;8.612;2022-09-17T08:23:56;6.78;;;1.45;;
1106;SDS011;540;49.448;8.612;2022-09-17T08:26:24;5.68;;;1.73;;
1106;SDS011;540;49.448;8.612;2022-09-17T08:28:53;6.38;;;1.65;;
1106;SDS011;540;49.448;8.612;2022-09-17T08:31:23;5.30;;;1.08;;
1106;SDS011;540;49.448;8.612;2022-09-17T08:33:53;6.05;;;1.95;;
1106;SDS011;540;49.448;8.612;2022-09-17T08:36:21;6.70;;;2.60;;
1106;SDS011;540;49.448;8.612;2022-09-17T08:38:51;10.30;;;3.20;;
1106;SDS011;540;49.448;8.612;2022-09-17T08:41:22;10.90;;;5.70;;
1106;SDS011;540;49.448;8.612;2022-09-17T08:43:58;11.68;;;2.60;;
1106;SDS011;540;49.448;8.612;2022-09-17T08:46:38;9.45;;;2.42;;
1106;SDS011;540;49.448;8.612;2022-09-17T08:49:11;7.80;;;1.85;;
1106;SDS011;540;49.448;8.612;2022-09-17T08:51:47;3.10;;;1.70;;
1106;SDS011;540;49.448;8.612;2022-09-17T08:54:28;8.10;;;1.70;;
1106;SDS011;540;49.448;8.612;2022-09-17T08:57:06;6.80;;;1.65;;
1106;SDS011;540;49.448;8.612;2022-09-17T08:59:42;3.83;;;1.45;;
1106;SDS011;540;49.448;8.612;2022-09-17T09:02:19;9.32;;;1.67;;
1106;SDS011;540;49.448;8.612;2022-09-17T09:05:01;7.05;;;1.42;;
1106;SDS011;540;49.448;8.612;2022-09-17T09:07:35;4.68;;;1.60;;
1106;SDS011;540;49.448;8.612;2022-09-17T09:10:11;5.55;;;1.85;;
1106;SDS011;540;49.448;8.612;2022-09-17T09:12:42;7.90;;;2.00;;
1106;SDS011;540;49.448;8.612;2022-09-17T09:15:17;6.97;;;1.30;;
1106;SDS011;540;49.448;8.612;2022-09-17T09:18:02;4.68;;;1.70;;
1106;SDS011;540;49.448;8.612;2022-09-17T09:20:41;4.32;;;1.00;;
1106;SDS011;540;49.448;8.612;2022-09-17T09:23:14;7.50;;;1.45;;
1106;SDS011;540;49.448;8.612;2022-09-17T09:25:58;4.40;;;1.33;;
1106;SDS011;540;49.448;8.612;2022-09-17T09:31:14;10.80;;;2.00;;
1106;SDS011;540;49.448;8.612;2022-09-17T09:33:55;7.30;;;1.80;;
1106;SDS011;540;49.448;8.612;2022-09-17T09:36:24;4.55;;;1.30;;
1106;SDS011;540;49.448;8.612;2022-09-17T09:38:56;12.40;;;1.80;;
1106;SDS011;540;49.448;8.612;2022-09-17T09:41:30;8.55;;;1.58;;
1106;SDS011;540;49.448;8.612;2022-09-17T09:44:02;9.63;;;1.40;;
1106;SDS011;540;49.448;8.612;2022-09-17T09:46:38;3.88;;;1.10;;
1106;SDS011;540;49.448;8.612;2022-09-17T09:49:18;5.10;;;1.40;;
1106;SDS011;540;49.448;8.612;2022-09-17T09:51:56;4.70;;;1.00;;
1106;SDS011;540;49.448;8.612;2022-09-17T09:54:42;2.00;;;1.02;;
1106;SDS011;540;49.448;8.612;2022-09-17T09:57:21;4.40;;;1.35;;
1106;SDS011;540;49.448;8.612;2022-09-17T10:02:56;4.85;;;1.10;;
1106;SDS011;540;49.448;8.612;2022-09-17T10:05:28;4.15;;;1.00;;
1106;SDS011;540;49.448;8.612;2022-09-17T10:07:56;6.03;;;1.52;;
1106;SDS011;540;49.448;8.612;2022-09-17T10:10:25;3.45;;;1.05;;
1106;SDS011;540;49.448;8.612;2022-09-17T10:13:03;3.55;;;1.08;;
1106;SDS011;540;49.448;8.612;2022-09-17T10:15:32;6.45;;;1.40;;
1106;SDS011;540;49.448;8.612;2022-09-17T10:18:15;3.00;;;0.95;;
1106;SDS011;540;49.448;8.612;2022-09-17T10:20:55;5.15;;;1.67;;
1106;SDS011;540;49.448;8.612;2022-09-17T10:23:25;2.30;;;1.02;;
1106;SDS011;540;49.448;8.612;2022-09-17T10:25:55;6.65;;;1.30;;
1106;SDS011;540;49.448;8.612;2022-09-17T10:28:33;5.70;;;1.13;;
1106;SDS011;540;49.448;8.612;2022-09-17T10:31:06;2.55;;;1.02;;
1106;SDS011;540;49.448;8.612;2022-09-17T10:33:37;4.72;;;1.30;;
1106;SDS011;540;49.448;8.612;2022-09-17T10:36:11;7.72;;;1.17;;
1106;SDS011;540;49.448;8.612;2022-09-17T10:38:40;4.57;;;1.58;;
1106;SDS011;540;49.448;8.612;2022-09-17T10:41:18;6.18;;;1.40;;
1106;SDS011;540;49.448;8.612;2022-09-17T10:43:48;3.63;;;1.02;;
1106;SDS011;540;49.448;8.612;2022-09-17T10:46:17;3.95;;;0.82;;
1106;SDS011;540;49.448;8.612;2022-09-17T10:48:55;3.70;;;1.20;;
1106;SDS011;540;49.448;8.612;2022-09-17T10:51:32;4.47;;;1.33;;
1106;SDS011;540;49.448;8.612;2022-09-17T10:54:06;4.55;;;1.50;;
1106;SDS011;540;49.448;8.612;2022-09-17T10:56:45;2.38;;;0.85;;
1106;SDS011;540;49.448;8.612;2022-09-17T11:02:24;4.03;;;0.70;;
1106;SDS011;540;49.448;8.612;2022-09-17T11:05:19;6.38;;;1.35;;
1106;SDS011;540;49.448;8.612;2022-09-17T11:08:04;2.78;;;1.15;;
1106;SDS011;540;49.448;8.612;2022-09-17T11:10:40;3.92;;;0.80;;
1106;SDS011;540;49.448;8.612;2022-09-17T11:13:17;5.65;;;0.98;;
1106;SDS011;540;49.448;8.612;2022-09-17T11:15:55;6.93;;;1.33;;
1106;SDS011;540;49.448;8.612;2022-09-17T11:18:35;5.88;;;0.93;;
1106;SDS011;540;49.448;8.612;2022-09-17T11:21:14;2.85;;;0.73;;
1106;SDS011;540;49.448;8.612;2022-09-17T11:24:10;5.90;;;0.60;;
1106;SDS011;540;49.448;8.612;2022-09-17T11:27:12;10.50;;;1.27;;
1106;SDS011;540;49.448;8.612;2022-09-17T11:29:58;6.53;;;1.10;;
1106;SDS011;540;49.448;8.612;2022-09-17T11:32:44;5.55;;;0.93;;
1106;SDS011;540;49.448;8.612;2022-09-17T11:35:23;3.78;;;1.20;;
1106;SDS011;540;49.448;8.612;2022-09-17T11:37:54;1.92;;;0.63;;
1106;SDS011;540;49.448;8.612;2022-09-17T11:40:31;2.78;;;0.85;;
1106;SDS011;540;49.448;8.612;2022-09-17T11:43:06;2.97;;;1.08;;
1106;SDS011;540;49.448;8.612;2022-09-17T11:45:47;3.45;;;0.98;;
1106;SDS011;540;49.448;8.612;2022-09-17T11:48:28;2.40;;;0.57;;
1106;SDS011;540;49.448;8.612;2022-09-17T11:51:05;2.33;;;0.77;;
1106;SDS011;540;49.448;8.612;2022-09-17T11:53:39;4.40;;;0.57;;
1106;SDS011;540;49.448;8.612;2022-09-17T11:56:15;8.27;;;1.80;;
1106;SDS011;540;49.448;8.612;2022-09-17T11:58:48;4.55;;;0.88;;
1106;SDS011;540;49.448;8.612;2022-09-17T12:01:20;3.83;;;1.13;;
1106;SDS011;540;49.448;8.612;2022-09-17T12:03:55;2.22;;;0.70;;
1106;SDS011;540;49.448;8.612;2022-09-17T12:06:30;3.03;;;0.70;;
1106;SDS011;540;49.448;8.612;2022-09-17T12:09:03;2.33;;;0.88;;
1106;SDS011;540;49.448;8.612;2022-09-17T12:11:40;5.63;;;1.00;;
1106;SDS011;540;49.448;8.612;2022-09-17T12:14:15;2.40;;;0.68;;
1106;SDS011;540;49.448;8.612;2022-09-17T12:16:47;3.20;;;0.65;;
1106;SDS011;540;49.448;8.612;2022-09-17T12:19:19;4.63;;;0.80;;
1106;SDS011;540;49.448;8.612;2022-09-17T12:21:52;3.58;;;0.70;;
1106;SDS011;540;49.448;8.612;2022-09-17T12:24:22;2.15;;;0.50;;
1106;SDS011;540;49.448;8.612;2022-09-17T12:27:04;4.47;;;1.00;;
1106;SDS011;540;49.448;8.612;2022-09-17T12:30:02;3.20;;;1.02;;
1106;SDS011;540;49.448;8.612;2022-09-17T12:32:53;2.00;;;0.68;;
1106;SDS011;540;49.448;8.612;2022-09-17T12:35:44;3.65;;;0.80;;
1106;SDS011;540;49.448;8.612;2022-09-17T12:41:34;6.65;;;0.90;;
1106;SDS011;540;49.448;8.612;2022-09-17T12:44:14;3.05;;;0.80;;
1106;SDS011;540;49.448;8.612;2022-09-17T12:47:04;2.92;;;0.68;;
1106;SDS011;540;49.448;8.612;2022-09-17T12:52:39;3.67;;;0.90;;
1106;SDS011;540;49.448;8.612;2022-09-17T12:55:20;2.38;;;0.75;;
1106;SDS011;540;49.448;8.612;2022-09-17T12:57:58;2.13;;;0.75;;
1106;SDS011;540;49.448;8.612;2022-09-17T13:03:05;6.68;;;0.90;;
1106;SDS011;540;49.448;8.612;2022-09-17T13:05:43;6.47;;;0.67;;
1106;SDS011;540;49.448;8.612;2022-09-17T13:08:32;3.25;;;0.73;;
1106;SDS011;540;49.448;8.612;2022-09-17T13:14:18;2.50;;;0.68;;
1106;SDS011;540;49.448;8.612;2022-09-17T13:19:29;2.88;;;0.90;;
1106;SDS011;540;49.448;8.612;2022-09-17T13:22:02;1.98;;;0.80;;
1106;SDS011;540;49.448;8.612;2022-09-17T13:24:35;1.88;;;0.52;;
1106;SDS011;540;49.448;8.612;2022-09-17T13:27:03;2.97;;;0.77;;
1106;SDS011;540;49.448;8.612;2022-09-17T13:32:45;4.53;;;0.60;;
1106;SDS011;540;49.448;8.612;2022-09-17T13:38:17;3.67;;;0.57;;
1106;SDS011;540;49.448;8.612;2022-09-17T13:40:49;2.55;;;0.60;;
1106;SDS011;540;49.448;8.612;2022-09-17T13:43:19;3.50;;;0.68;;
1106;SDS011;540;49.448;8.612;2022-09-17T13:46:10;0.75;;;0.40;;
1106;SDS011;540;49.448;8.612;2022-09-17T13:48:45;3.88;;;0.63;;
1106;SDS011;540;49.448;8.612;2022-09-17T13:54:12;2.65;;;0.63;;
1106;SDS011;540;49.448;8.612;2022-09-17T13:56:43;2.13;;;0.50;;
1106;SDS011;540;49.448;8.612;2022-09-17T13:59:14;1.85;;;0.68;;
1106;SDS011;540;49.448;8.612;2022-09-17T14:05:16;2.53;;;0.55;;
1106;SDS011;540;49.448;8.612;2022-09-17T14:08:11;1.92;;;0.70;;
1106;SDS011;540;49.448;8.612;2022-09-17T14:10:54;3.55;;;1.35;;
1106;SDS011;540;49.448;8.612;2022-09-17T14:13:40;1.75;;;0.70;;
1106;SDS011;540;49.448;8.612;2022-09-17T14:16:29;4.25;;;0.68;;
1106;SDS011;540;49.448;8.612;2022-09-17T14:19:01;0.52;;;0.50;;
1106;SDS011;540;49.448;8.612;2022-09-17T14:21:33;2.20;;;0.65;;
1106;SDS011;540;49.448;8.612;2022-09-17T14:24:02;2.55;;;0.77;;
1106;SDS011;540;49.448;8.612;2022-09-17T14:26:55;3.53;;;0.93;;
1106;SDS011;540;49.448;8.612;2022-09-17T14:29:34;0.75;;;0.50;;
1106;SDS011;540;49.448;8.612;2022-09-17T14:32:16;3.28;;;0.55;;
1106;SDS011;540;49.448;8.612;2022-09-17T14:34:46;2.25;;;0.50;;
1106;SDS011;540;49.448;8.612;2022-09-17T14:37:16;1.20;;;0.52;;
1106;SDS011;540;49.448;8.612;2022-09-17T14:39:47;1.98;;;0.43;;
1106;SDS011;540;49.448;8.612;2022-09-17T14:42:16;1.73;;;0.32;;
1106;SDS011;540;49.448;8.612;2022-09-17T14:44:48;0.75;;;0.40;;
1106;SDS011;540;49.448;8.612;2022-09-17T14:47:23;2.03;;;0.70;;
1106;SDS011;540;49.448;8.612;2022-09-17T14:49:52;2.90;;;0.35;;
1106;SDS011;540;49.448;8.612;2022-09-17T14:52:25;1.30;;;0.80;;
1106;SDS011;540;49.448;8.612;2022-09-17T14:55:07;2.45;;;1.02;;
1106;SDS011;540;49.448;8.612;2022-09-17T14:57:36;1.48;;;0.50;;
1106;SDS011;540;49.448;8.612;2022-09-17T15:00:05;1.85;;;0.70;;
1106;SDS011;540;49.448;8.612;2022-09-17T15:02:42;1.17;;;0.63;;
1106;SDS011;540;49.448;8.612;2022-09-17T15:05:17;0.77;;;0.40;;
1106;SDS011;540;49.448;8.612;2022-09-17T15:07:49;1.20;;;0.30;;
1106;SDS011;540;49.448;8.612;2022-09-17T15:10:18;0.65;;;0.45;;
1106;SDS011;540;49.448;8.612;2022-09-17T15:12:47;2.65;;;0.43;;
1106;SDS011;540;49.448;8.612;2022-09-17T15:15:18;1.70;;;0.60;;
1106;SDS011;540;49.448;8.612;2022-09-17T15:17:47;2.50;;;0.70;;
1106;SDS011;540;49.448;8.612;2022-09-17T15:20:18;0.82;;;0.30;;
1106;SDS011;540;49.448;8.612;2022-09-17T15:22:51;4.28;;;0.90;;
1106;SDS011;540;49.448;8.612;2022-09-17T15:25:22;2.08;;;1.00;;
1106;SDS011;540;49.448;8.612;2022-09-17T15:27:56;2.38;;;1.20;;
1106;SDS011;540;49.448;8.612;2022-09-17T15:30:29;2.58;;;1.20;;
1106;SDS011;540;49.448;8.612;2022-09-17T15:32:58;1.70;;;0.68;;
1106;SDS011;540;49.448;8.612;2022-09-17T15:35:26;3.80;;;1.15;;
1106;SDS011;540;49.448;8.612;2022-09-17T15:37:58;2.95;;;1.05;;
1106;SDS011;540;49.448;8.612;2022-09-17T15:40:48;2.80;;;0.63;;
1106;SDS011;540;49.448;8.612;2022-09-17T15:43:17;3.35;;;0.60;;
1106;SDS011;540;49.448;8.612;2022-09-17T15:45:51;3.67;;;0.65;;
1106;SDS011;540;49.448;8.612;2022-09-17T15:48:21;1.48;;;0.60;;
1106;SDS011;540;49.448;8.612;2022-09-17T15:51:00;0.75;;;0.40;;
1106;SDS011;540;49.448;8.612;2022-09-17T15:53:30;0.93;;;0.55;;
1106;SDS011;540;49.448;8.612;2022-09-17T15:56:03;3.20;;;0.60;;
1106;SDS011;540;49.448;8.612;2022-09-17T15:58:35;1.92;;;0.75;;
1106;SDS011;540;49.448;8.612;2022-09-17T16:06:58;2.55;;;0.90;;
1106;SDS011;540;49.448;8.612;2022-09-17T16:09:40;1.27;;;0.80;;
1106;SDS011;540;49.448;8.612;2022-09-17T16:12:14;2.15;;;0.75;;
1106;SDS011;540;49.448;8.612;2022-09-17T16:14:44;2.53;;;0.57;;
1106;SDS011;540;49.448;8.612;2022-09-17T16:17:23;1.30;;;0.60;;
1106;SDS011;540;49.448;8.612;2022-09-17T16:19:54;1.10;;;0.50;;
1106;SDS011;540;49.448;8.612;2022-09-17T16:22:22;3.00;;;0.73;;
1106;SDS011;540;49.448;8.612;2022-09-17T16:24:52;3.85;;;0.50;;
1106;SDS011;540;49.448;8.612;2022-09-17T16:27:21;2.05;;;0.35;;
1106;SDS011;540;49.448;8.612;2022-09-17T16:29:54;1.17;;;0.40;;
1106;SDS011;540;49.448;8.612;2022-09-17T16:32:27;0.80;;;0.52;;
1106;SDS011;540;49.448;8.612;2022-09-17T16:34:55;1.02;;;0.25;;
1106;SDS011;540;49.448;8.612;2022-09-17T16:37:23;1.63;;;0.57;;
1106;SDS011;540;49.448;8.612;2022-09-17T16:39:52;1.65;;;0.40;;
1106;SDS011;540;49.448;8.612;2022-09-17T16:42:20;0.95;;;0.60;;
1106;SDS011;540;49.448;8.612;2022-09-17T16:44:48;1.42;;;0.50;;
1106;SDS011;540;49.448;8.612;2022-09-17T16:47:15;3.05;;;0.60;;
1106;SDS011;540;49.448;8.612;2022-09-17T16:49:43;1.67;;;0.70;;